createdAt,value
2024-03-02T00:01:38.174Z,9.75
2024-03-02T00:04:08.226Z,9.76
2024-03-02T00:06:36.599Z,9.76
2024-03-02T00:09:04.873Z,9.76
2024-03-02T00:11:37.252Z,9.76
2024-03-02T00:14:05.520Z,9.79
2024-03-02T00:16:33.996Z,9.80
2024-03-02T00:19:07.248Z,9.80
2024-03-02T00:21:36.180Z,9.80
2024-03-02T00:24:35.292Z,9.80
2024-03-02T00:27:05.398Z,9.80
2024-03-02T00:29:33.569Z,9.78
2024-03-02T00:32:02.467Z,9.77
2024-03-02T00:34:30.637Z,9.78
2024-03-02T00:37:01.292Z,9.78
2024-03-02T00:39:30.361Z,9.80
2024-03-02T00:41:58.524Z,9.82
2024-03-02T00:44:35.510Z,9.83
2024-03-02T00:47:04.390Z,9.84
2024-03-02T00:49:32.569Z,9.86
2024-03-02T00:52:00.796Z,9.86
2024-03-02T00:54:30.282Z,9.86
2024-03-02T00:56:58.621Z,9.86
2024-03-02T00:59:28.427Z,9.85
2024-03-02T01:01:56.635Z,9.85
2024-03-02T01:04:26.212Z,9.84
2024-03-02T01:06:54.541Z,9.85
2024-03-02T01:09:22.785Z,9.84
2024-03-02T01:11:51.141Z,9.83
2024-03-02T01:14:19.320Z,9.83
2024-03-02T01:16:47.486Z,9.84
2024-03-02T01:19:16.358Z,9.83
2024-03-02T01:21:44.798Z,9.83
2024-03-02T01:24:14.765Z,9.82
2024-03-02T01:26:43.046Z,9.82
2024-03-02T01:29:11.120Z,9.82
2024-03-02T01:31:41.124Z,9.81
2024-03-02T01:34:09.838Z,9.81
2024-03-02T01:36:38.018Z,9.81
2024-03-02T01:39:10.267Z,9.81
2024-03-02T01:41:38.552Z,9.81
2024-03-02T01:44:06.921Z,9.81
2024-03-02T01:46:36.237Z,9.81
2024-03-02T01:49:04.430Z,9.80
2024-03-02T01:51:33.096Z,9.79
2024-03-02T01:54:01.253Z,9.78
2024-03-02T01:56:29.405Z,9.79
2024-03-02T01:58:57.475Z,9.80
2024-03-02T02:01:25.590Z,9.80
2024-03-02T02:03:53.872Z,9.80
2024-03-02T02:06:22.978Z,9.79
2024-03-02T02:08:51.189Z,9.79
2024-03-02T02:11:19.476Z,9.78
2024-03-02T02:13:47.639Z,9.78
2024-03-02T02:16:15.826Z,9.78
2024-03-02T02:18:44.348Z,9.79
2024-03-02T02:21:12.566Z,9.80
2024-03-02T02:23:40.836Z,9.80
2024-03-02T02:26:09.022Z,9.80
2024-03-02T02:28:37.412Z,9.81
2024-03-02T02:31:05.601Z,9.82
2024-03-02T02:33:33.986Z,9.83
2024-03-02T02:36:02.316Z,9.83
2024-03-02T02:38:30.616Z,9.82
2024-03-02T02:40:59.219Z,9.82
2024-03-02T02:43:27.445Z,9.82
2024-03-02T02:45:55.918Z,9.81
2024-03-02T02:48:24.269Z,9.80
2024-03-02T02:50:52.577Z,9.80
2024-03-02T02:53:20.653Z,9.80
2024-03-02T02:55:48.833Z,9.80
2024-03-02T02:58:17.197Z,9.79
2024-03-02T03:00:45.520Z,9.78
2024-03-02T03:03:13.752Z,9.77
2024-03-02T03:05:41.949Z,9.77
2024-03-02T03:08:10.154Z,9.78
2024-03-02T03:10:38.401Z,9.76
2024-03-02T03:13:09.526Z,9.74
2024-03-02T03:15:38.039Z,9.71
2024-03-02T03:18:06.560Z,9.69
2024-03-02T03:20:35.153Z,9.67
2024-03-02T03:23:05.149Z,9.65
2024-03-02T03:25:33.239Z,9.64
2024-03-02T03:28:02.609Z,9.62
2024-03-02T03:30:30.906Z,9.61
2024-03-02T03:32:59.089Z,9.60
2024-03-02T03:35:27.259Z,9.60
2024-03-02T03:37:55.839Z,9.60
2024-03-02T03:40:23.914Z,9.60
2024-03-02T03:42:52.336Z,9.61
2024-03-02T03:45:21.535Z,9.61
2024-03-02T03:47:49.892Z,9.60
2024-03-02T03:50:18.137Z,9.60
2024-03-02T03:52:46.207Z,9.60
2024-03-02T03:55:15.107Z,9.61
2024-03-02T03:57:43.284Z,9.60
2024-03-02T04:00:12.661Z,9.60
2024-03-02T04:02:41.052Z,9.60
2024-03-02T04:05:12.625Z,9.60
2024-03-02T04:07:42.115Z,9.61
2024-03-02T04:10:11.673Z,9.62
2024-03-02T04:12:40.598Z,9.62
2024-03-02T04:15:09.738Z,9.62
2024-03-02T04:17:38.485Z,9.62
2024-03-02T04:20:08.054Z,9.63
2024-03-02T04:22:37.203Z,9.61
2024-03-02T04:25:09.068Z,9.61
2024-03-02T04:27:37.625Z,9.61
2024-03-02T04:30:07.079Z,9.60
2024-03-02T04:32:35.513Z,9.59
2024-03-02T04:35:03.788Z,9.59
2024-03-02T04:37:34.582Z,9.57
2024-03-02T04:40:02.860Z,9.57
2024-03-02T04:42:31.300Z,9.56
2024-03-02T04:44:59.446Z,9.55
2024-03-02T04:47:27.625Z,9.54
2024-03-02T04:49:55.990Z,9.52
2024-03-02T04:52:24.162Z,9.51
2024-03-02T04:55:11.280Z,9.49
2024-03-02T04:57:39.513Z,9.47
2024-03-02T05:00:10.145Z,9.46
2024-03-02T05:02:38.472Z,9.43
2024-03-02T05:05:07.445Z,9.42
2024-03-02T05:07:36.031Z,9.39
2024-03-02T05:10:04.713Z,9.37
2024-03-02T05:12:45.165Z,9.34
2024-03-02T05:15:15.132Z,9.31
2024-03-02T05:17:46.567Z,9.28
2024-03-02T05:20:15.131Z,9.27
2024-03-02T05:22:43.390Z,9.25
2024-03-02T05:25:12.145Z,9.23
2024-03-02T05:27:41.057Z,9.22
2024-03-02T05:30:10.108Z,9.21
2024-03-02T05:32:38.776Z,9.20
2024-03-02T05:35:07.737Z,9.18
2024-03-02T05:37:35.921Z,9.15
2024-03-02T05:40:04.710Z,9.11
2024-03-02T05:42:32.982Z,9.06
2024-03-02T05:45:01.177Z,9.00
2024-03-02T05:47:29.534Z,8.92
2024-03-02T05:49:57.999Z,8.87
2024-03-02T05:52:26.175Z,8.86
2024-03-02T05:54:54.600Z,8.85
2024-03-02T05:57:41.834Z,8.84
2024-03-02T06:00:10.455Z,8.84
2024-03-02T06:02:44.678Z,8.82
2024-03-02T06:05:12.948Z,8.82
2024-03-02T06:07:41.302Z,8.82
2024-03-02T06:10:13.888Z,8.84
2024-03-02T06:12:42.986Z,8.86
2024-03-02T06:15:12.329Z,8.88
2024-03-02T06:17:40.840Z,8.89
2024-03-02T06:20:10.034Z,8.89
2024-03-02T06:22:38.581Z,8.90
2024-03-02T06:25:07.408Z,8.93
2024-03-02T06:27:35.981Z,8.97
2024-03-02T06:30:05.479Z,8.99
2024-03-02T06:32:34.182Z,9.00
2024-03-02T06:35:02.742Z,9.03
2024-03-02T06:37:31.035Z,9.06
2024-03-02T06:39:59.322Z,9.09
2024-03-02T06:42:27.778Z,9.11
2024-03-02T06:44:55.923Z,9.14
2024-03-02T06:47:24.197Z,9.18
2024-03-02T06:49:52.681Z,9.21
2024-03-02T06:52:24.896Z,9.25
2024-03-02T06:54:53.684Z,9.29
2024-03-02T06:57:22.411Z,9.33
2024-03-02T06:59:52.746Z,9.38
2024-03-02T07:02:21.646Z,9.44
2024-03-02T07:04:50.165Z,9.49
2024-03-02T07:07:18.773Z,9.56
2024-03-02T07:09:47.186Z,9.62
2024-03-02T07:12:15.638Z,9.67
2024-03-02T07:15:12.881Z,9.73
2024-03-02T07:17:41.249Z,9.80
2024-03-02T07:20:10.264Z,9.84
2024-03-02T07:22:41.079Z,9.90
2024-03-02T07:26:54.596Z,9.96
2024-03-02T07:27:58.862Z,10.01
2024-03-02T07:30:27.266Z,10.05
2024-03-02T07:32:55.542Z,10.12
2024-03-02T07:35:27.964Z,10.19
2024-03-02T07:37:56.854Z,10.26
2024-03-02T07:40:25.525Z,10.32
2024-03-02T07:42:53.820Z,10.37
2024-03-02T07:45:22.251Z,10.44
2024-03-02T07:47:51.376Z,10.51
2024-03-02T07:50:19.769Z,10.57
2024-03-02T07:52:47.852Z,10.64
2024-03-02T07:55:16.036Z,10.73
2024-03-02T07:57:44.399Z,10.81
2024-03-02T08:00:13.169Z,10.88
2024-03-02T08:02:41.643Z,10.97
2024-03-02T08:05:10.326Z,11.05
2024-03-02T08:07:38.806Z,11.14
2024-03-02T08:10:07.572Z,11.23
2024-03-02T08:12:35.886Z,11.29
2024-03-02T08:15:05.343Z,11.36
2024-03-02T08:17:36.013Z,11.44
2024-03-02T08:20:07.123Z,11.50
2024-03-02T08:22:35.209Z,11.58
2024-03-02T08:25:03.747Z,11.65
2024-03-02T08:27:33.710Z,11.71
2024-03-02T08:30:02.136Z,11.79
2024-03-02T08:32:30.411Z,11.85
2024-03-02T08:34:58.632Z,11.93
2024-03-02T08:37:26.701Z,12.04
2024-03-02T08:39:55.037Z,12.14
2024-03-02T08:42:23.788Z,12.22
2024-03-02T08:44:52.046Z,12.28
2024-03-02T08:47:20.210Z,12.30
2024-03-02T08:49:48.281Z,12.33
2024-03-02T08:52:16.356Z,12.36
2024-03-02T08:54:44.440Z,12.43
2024-03-02T08:57:12.701Z,12.51
2024-03-02T08:59:41.078Z,12.57
2024-03-02T09:02:09.247Z,12.64
2024-03-02T09:04:37.419Z,12.74
2024-03-02T09:07:05.680Z,12.87
2024-03-02T09:09:34.014Z,13.00
2024-03-02T09:12:02.396Z,13.16
2024-03-02T09:14:30.621Z,13.30
2024-03-02T09:16:58.912Z,13.39
2024-03-02T09:19:27.173Z,13.51
2024-03-02T09:21:56.946Z,13.63
2024-03-02T09:24:25.869Z,13.67
2024-03-02T09:26:54.062Z,13.70
2024-03-02T09:29:22.382Z,13.76
2024-03-02T09:31:52.127Z,13.78
2024-03-02T09:34:20.435Z,13.77
2024-03-02T09:36:48.684Z,13.75
2024-03-02T09:39:17.159Z,13.73
2024-03-02T09:41:45.533Z,13.70
2024-03-02T09:44:13.913Z,13.69
2024-03-02T09:46:45.326Z,13.72
2024-03-02T09:49:14.149Z,13.75
2024-03-02T09:51:48.540Z,13.78
2024-03-02T09:54:22.232Z,13.86
2024-03-02T09:56:52.541Z,13.94
2024-03-02T09:59:22.028Z,14.04
2024-03-02T10:02:01.268Z,14.16
2024-03-02T10:04:32.307Z,14.25
2024-03-02T10:07:20.010Z,14.35
2024-03-02T10:09:53.326Z,14.48
2024-03-02T10:12:22.313Z,14.57
2024-03-02T10:14:52.929Z,14.67
2024-03-02T10:17:21.090Z,14.75
2024-03-02T10:19:49.258Z,14.81
2024-03-02T10:22:17.436Z,14.85
2024-03-02T10:24:47.058Z,14.91
2024-03-02T10:27:24.160Z,14.97
2024-03-02T10:29:52.491Z,15.12
2024-03-02T10:32:23.946Z,15.20
2024-03-02T10:34:52.127Z,15.23
2024-03-02T10:37:23.069Z,15.29
2024-03-02T10:39:51.360Z,15.40
2024-03-02T10:42:20.691Z,15.47
2024-03-02T10:44:50.040Z,15.50
2024-03-02T10:47:20.761Z,15.57
2024-03-02T10:49:53.056Z,15.60
2024-03-02T10:52:21.199Z,15.60
2024-03-02T10:54:49.717Z,15.58
2024-03-02T10:57:18.471Z,15.54
2024-03-02T10:59:58.761Z,15.56
2024-03-02T11:02:29.043Z,15.56
2024-03-02T11:04:57.562Z,15.55
2024-03-02T11:07:26.532Z,15.58
2024-03-02T11:10:10.205Z,15.57
2024-03-02T11:13:03.411Z,15.54
2024-03-02T11:15:31.931Z,15.52
2024-03-02T11:18:00.498Z,15.52
2024-03-02T11:20:30.162Z,15.55
2024-03-02T11:22:58.256Z,15.58
2024-03-02T11:25:29.614Z,15.54
2024-03-02T11:27:57.754Z,15.56
2024-03-02T11:30:36.121Z,15.52
2024-03-02T11:33:13.397Z,15.50
2024-03-02T11:35:49.661Z,15.45
2024-03-02T11:38:19.745Z,15.38
2024-03-02T11:40:48.175Z,15.40
2024-03-02T11:43:16.713Z,15.40
2024-03-02T11:45:45.848Z,15.43
2024-03-02T11:48:17.765Z,15.46
2024-03-02T11:50:51.839Z,15.50
2024-03-02T11:53:21.797Z,15.52
2024-03-02T11:55:50.770Z,15.55
2024-03-02T11:58:25.090Z,15.59
2024-03-02T12:00:54.077Z,15.59
2024-03-02T12:03:27.267Z,15.59
2024-03-02T12:05:56.731Z,15.67
2024-03-02T12:08:25.897Z,15.73
2024-03-02T12:11:02.712Z,15.79
2024-03-02T12:13:32.481Z,15.91
2024-03-02T12:16:01.144Z,15.99
2024-03-02T12:18:29.773Z,16.13
2024-03-02T12:20:59.999Z,16.22
2024-03-02T12:23:28.879Z,16.23
2024-03-02T12:25:57.833Z,16.27
2024-03-02T12:28:26.416Z,16.36
2024-03-02T12:30:54.903Z,16.45
2024-03-02T12:33:24.301Z,16.44
2024-03-02T12:35:52.607Z,16.49
2024-03-02T12:38:21.175Z,16.58
2024-03-02T12:40:50.982Z,16.66
2024-03-02T12:43:19.539Z,16.62
2024-03-02T12:45:48.194Z,16.59
2024-03-02T12:48:16.611Z,16.55
2024-03-02T12:50:45.664Z,16.51
2024-03-02T12:53:17.983Z,16.47
2024-03-02T12:55:46.461Z,16.39
2024-03-02T12:58:20.009Z,16.37
2024-03-02T13:00:48.724Z,16.36
2024-03-02T13:03:21.162Z,16.29
2024-03-02T13:05:51.272Z,16.19
2024-03-02T13:08:19.326Z,16.09
2024-03-02T13:10:47.824Z,16.01
2024-03-02T13:13:16.265Z,15.96
2024-03-02T13:15:46.441Z,15.88
2024-03-02T13:18:14.900Z,15.84
2024-03-02T13:20:43.124Z,15.80
2024-03-02T13:23:11.605Z,15.80
2024-03-02T13:25:39.778Z,15.79
2024-03-02T13:28:08.844Z,15.73
2024-03-02T13:30:37.268Z,15.65
2024-03-02T13:33:06.042Z,15.57
2024-03-02T13:35:34.212Z,15.51
2024-03-02T13:38:02.587Z,15.44
2024-03-02T13:40:32.090Z,15.35
2024-03-02T13:43:00.290Z,15.27
2024-03-02T13:45:29.289Z,15.19
2024-03-02T13:47:57.636Z,15.11
2024-03-02T13:50:25.802Z,15.04
2024-03-02T13:52:53.880Z,15.00
2024-03-02T13:55:22.043Z,14.95
2024-03-02T13:57:51.453Z,14.87
2024-03-02T14:00:20.336Z,14.81
2024-03-02T14:02:51.071Z,14.73
2024-03-02T14:05:20.668Z,14.64
2024-03-02T14:07:48.745Z,14.64
2024-03-02T14:10:17.267Z,14.63
2024-03-02T14:12:45.535Z,14.61
2024-03-02T14:15:13.772Z,14.62
2024-03-02T14:17:42.070Z,14.62
2024-03-02T14:20:14.738Z,14.61
2024-03-02T14:22:42.898Z,14.61
2024-03-02T14:25:11.302Z,14.59
2024-03-02T14:30:12.846Z,14.48
2024-03-02T14:32:41.037Z,14.43
2024-03-02T14:35:12.819Z,14.41
2024-03-02T14:37:41.151Z,14.35
2024-03-02T14:40:11.092Z,14.29
2024-03-02T14:42:39.472Z,14.22
2024-03-02T14:45:07.816Z,14.16
2024-03-02T14:47:36.785Z,14.09
2024-03-02T14:50:07.552Z,14.01
2024-03-02T14:52:35.814Z,13.93
2024-03-02T14:55:05.540Z,13.87
2024-03-02T14:57:33.725Z,13.82
2024-03-02T15:00:01.971Z,13.78
2024-03-02T15:02:30.357Z,13.73
2024-03-02T15:04:58.734Z,13.68
2024-03-02T15:07:27.214Z,13.64
2024-03-02T15:09:56.340Z,13.58
2024-03-02T15:12:24.969Z,13.54
2024-03-02T15:14:53.160Z,13.51
2024-03-02T15:17:21.435Z,13.46
2024-03-02T15:19:49.616Z,13.42
2024-03-02T15:22:18.399Z,13.36
2024-03-02T15:24:46.602Z,13.31
2024-03-02T15:27:14.747Z,13.26
2024-03-02T15:29:42.921Z,13.22
2024-03-02T15:32:11.286Z,13.18
2024-03-02T15:34:39.638Z,13.14
2024-03-02T15:37:07.943Z,13.10
2024-03-02T15:39:36.286Z,13.07
2024-03-02T15:42:06.160Z,13.03
2024-03-02T15:44:34.414Z,13.01
2024-03-02T15:47:02.881Z,12.98
2024-03-02T15:49:33.305Z,12.95
2024-03-02T15:52:04.873Z,12.91
2024-03-02T15:54:33.256Z,12.87
2024-03-02T15:57:01.613Z,12.85
2024-03-02T15:59:29.786Z,12.83
2024-03-02T16:01:59.805Z,12.81
2024-03-02T16:04:28.082Z,12.75
2024-03-02T16:06:56.385Z,12.69
2024-03-02T16:09:24.672Z,12.65
2024-03-02T16:11:53.415Z,12.62
2024-03-02T16:14:21.720Z,12.61
2024-03-02T16:16:49.860Z,12.57
2024-03-02T16:19:25.764Z,12.55
2024-03-02T16:22:01.146Z,12.51
2024-03-02T16:24:29.593Z,12.49
2024-03-02T16:26:58.326Z,12.45
2024-03-02T16:29:26.499Z,12.38
2024-03-02T16:31:54.673Z,12.30
2024-03-02T16:34:22.978Z,12.22
2024-03-02T16:36:51.273Z,12.17
2024-03-02T16:39:19.591Z,12.12
2024-03-02T16:41:48.438Z,12.06
2024-03-02T16:44:16.964Z,11.99
2024-03-02T16:46:46.688Z,11.92
2024-03-02T16:49:15.083Z,11.86
2024-03-02T16:51:44.346Z,11.80
2024-03-02T16:54:12.619Z,11.73
2024-03-02T16:56:44.402Z,11.69
2024-03-02T16:59:12.666Z,11.62
2024-03-02T17:01:41.177Z,11.56
2024-03-02T17:04:09.658Z,11.52
2024-03-02T17:06:38.042Z,11.48
2024-03-02T17:09:06.777Z,11.44
2024-03-02T17:11:36.537Z,11.37
2024-03-02T17:14:05.081Z,11.30
2024-03-02T17:16:33.138Z,11.25
2024-03-02T17:19:01.831Z,11.22
2024-03-02T17:21:30.514Z,11.18
2024-03-02T17:23:59.663Z,11.14
2024-03-02T17:26:27.982Z,11.10
2024-03-02T17:28:56.264Z,11.07
2024-03-02T17:31:24.428Z,11.06
2024-03-02T17:33:52.721Z,11.07
2024-03-02T17:36:20.975Z,11.09
2024-03-02T17:38:49.263Z,11.10
2024-03-02T17:41:17.625Z,11.12
2024-03-02T17:43:45.900Z,11.13
2024-03-02T17:46:14.158Z,11.16
2024-03-02T17:48:42.891Z,11.20
2024-03-02T17:51:11.336Z,11.22
2024-03-02T17:53:39.620Z,11.24
2024-03-02T17:56:10.964Z,11.26
2024-03-02T17:58:39.574Z,11.27
2024-03-02T18:01:07.885Z,11.27
2024-03-02T18:03:36.495Z,11.29
2024-03-02T18:06:05.870Z,11.28
2024-03-02T18:08:36.056Z,11.28
2024-03-02T18:11:08.018Z,11.28
2024-03-02T18:13:36.384Z,11.28
2024-03-02T18:16:06.035Z,11.26
2024-03-02T18:18:34.326Z,11.26
2024-03-02T18:21:03.859Z,11.26
2024-03-02T18:23:32.545Z,11.26
2024-03-02T18:26:01.133Z,11.25
2024-03-02T18:28:29.354Z,11.25
2024-03-02T18:30:59.757Z,11.25
2024-03-02T18:33:28.052Z,11.24
2024-03-02T18:35:56.774Z,11.23
2024-03-02T18:38:24.952Z,11.21
2024-03-02T18:40:53.118Z,11.19
2024-03-02T18:43:21.498Z,11.19
2024-03-02T18:45:49.822Z,11.18
2024-03-02T18:48:18.092Z,11.15
2024-03-02T18:50:46.318Z,11.14
2024-03-02T18:53:14.804Z,11.12
2024-03-02T18:55:42.972Z,11.10
2024-03-02T18:58:11.073Z,11.08
2024-03-02T19:00:39.767Z,11.07
2024-03-02T19:03:11.002Z,11.06
2024-03-02T19:05:39.765Z,11.03
2024-03-02T19:08:09.354Z,10.99
2024-03-02T19:10:37.659Z,10.96
2024-03-02T19:13:07.310Z,10.93
2024-03-02T19:15:35.681Z,10.91
2024-03-02T19:18:04.612Z,10.89
2024-03-02T19:20:33.099Z,10.86
2024-03-02T19:23:01.711Z,10.82
2024-03-02T19:25:29.974Z,10.79
2024-03-02T19:27:58.465Z,10.77
2024-03-02T19:30:27.218Z,10.73
2024-03-02T19:32:55.645Z,10.70
2024-03-02T19:35:23.875Z,10.67
2024-03-02T19:37:53.272Z,10.62
2024-03-02T19:40:21.442Z,10.58
2024-03-02T19:42:49.674Z,10.57
2024-03-02T19:45:18.046Z,10.56
2024-03-02T19:47:46.170Z,10.57
2024-03-02T19:50:15.531Z,10.57
2024-03-02T19:52:43.848Z,10.59
2024-03-02T19:55:14.172Z,10.60
2024-03-02T19:57:46.115Z,10.61
2024-03-02T20:00:15.807Z,10.62
2024-03-02T20:02:44.030Z,10.62
2024-03-02T20:05:13.438Z,10.63
2024-03-02T20:07:42.749Z,10.64
2024-03-02T20:10:12.624Z,10.66
2024-03-02T20:12:41.101Z,10.68
2024-03-02T20:15:21.068Z,10.67
2024-03-02T20:17:49.374Z,10.67
2024-03-02T20:20:18.011Z,10.67
2024-03-02T20:22:47.205Z,10.66
2024-03-02T20:25:17.110Z,10.63
2024-03-02T20:27:46.479Z,10.63
2024-03-02T20:30:15.119Z,10.62
2024-03-02T20:32:43.836Z,10.62
2024-03-02T20:35:12.786Z,10.62
2024-03-02T20:37:41.369Z,10.62
2024-03-02T20:40:10.384Z,10.62
2024-03-02T20:42:39.316Z,10.61
2024-03-02T20:45:08.661Z,10.60
2024-03-02T20:47:36.830Z,10.58
2024-03-02T20:50:05.637Z,10.54
2024-03-02T20:52:33.987Z,10.50
2024-03-02T20:55:02.134Z,10.44
2024-03-02T20:57:30.534Z,10.40
2024-03-02T20:59:58.816Z,10.35
2024-03-02T21:02:27.551Z,10.31
2024-03-02T21:04:55.888Z,10.24
2024-03-02T21:07:24.072Z,10.20
2024-03-02T21:09:53.978Z,10.18
2024-03-02T21:12:22.344Z,10.16
2024-03-02T21:14:50.608Z,10.14
2024-03-02T21:17:18.775Z,10.13
2024-03-02T21:19:48.487Z,10.13
2024-03-02T21:22:16.988Z,10.12
2024-03-02T21:24:47.348Z,10.11
2024-03-02T21:27:18.519Z,10.11
2024-03-02T21:29:48.303Z,10.09
2024-03-02T21:32:16.628Z,10.09
2024-03-02T21:34:44.800Z,10.09
2024-03-02T21:37:13.152Z,10.08
2024-03-02T21:39:47.022Z,10.09
2024-03-02T21:42:15.965Z,10.10
2024-03-02T21:44:44.448Z,10.12
2024-03-02T21:47:13.852Z,10.14
2024-03-02T21:49:42.027Z,10.15
2024-03-02T21:52:10.640Z,10.15
2024-03-02T21:54:38.899Z,10.15
2024-03-02T21:57:10.637Z,10.14
2024-03-02T21:59:40.547Z,10.11
2024-03-02T22:02:08.902Z,10.08
2024-03-02T22:04:37.511Z,10.04
2024-03-02T22:07:05.808Z,10.00
2024-03-02T22:09:35.562Z,9.95
2024-03-02T22:12:04.018Z,9.87
2024-03-02T22:14:32.248Z,9.79
2024-03-02T22:17:00.549Z,9.72
2024-03-02T22:19:28.911Z,9.66
2024-03-02T22:21:57.204Z,9.58
2024-03-02T22:24:26.265Z,9.52
2024-03-02T22:26:54.451Z,9.45
2024-03-02T22:29:22.612Z,9.41
2024-03-02T22:31:50.992Z,9.35
2024-03-02T22:34:19.400Z,9.32
2024-03-02T22:36:47.655Z,9.28
2024-03-02T22:39:15.814Z,9.24
2024-03-02T22:41:44.396Z,9.20
2024-03-02T22:44:12.676Z,9.16
2024-03-02T22:46:40.841Z,9.14
2024-03-02T22:49:09.038Z,9.11
2024-03-02T22:51:37.256Z,9.10
2024-03-02T22:54:05.469Z,9.10
2024-03-02T22:56:33.745Z,9.06
2024-03-02T22:59:02.339Z,9.03
2024-03-02T23:01:30.630Z,9.00
2024-03-02T23:03:58.787Z,8.96
2024-03-02T23:06:27.866Z,8.88
2024-03-02T23:08:56.034Z,8.84
2024-03-02T23:11:24.439Z,8.77
2024-03-02T23:13:52.698Z,8.69
2024-03-02T23:16:20.888Z,8.67
2024-03-02T23:18:50.157Z,8.63
2024-03-02T23:21:18.442Z,8.57
2024-03-02T23:23:46.605Z,8.49
2024-03-02T23:26:14.791Z,8.47
2024-03-02T23:28:42.954Z,8.47
2024-03-02T23:31:11.201Z,8.47
2024-03-02T23:33:40.078Z,8.47
2024-03-02T23:36:08.286Z,8.47
2024-03-02T23:38:36.366Z,8.48
2024-03-02T23:41:16.220Z,8.53
2024-03-02T23:43:44.387Z,8.59
2024-03-02T23:46:12.900Z,8.64
2024-03-02T23:48:41.267Z,8.70
2024-03-02T23:51:09.510Z,8.78
2024-03-02T23:53:37.684Z,8.85
2024-03-02T23:56:13.740Z,8.93
2024-03-02T23:58:42.225Z,9.00
